createdAt,value
2022-11-15T00:00:55.322Z,3.10
2022-11-15T00:03:25.040Z,3.10
2022-11-15T00:05:51.805Z,3.10
2022-11-15T00:08:18.536Z,3.10
2022-11-15T00:10:58.837Z,3.00
2022-11-15T00:13:25.373Z,3.00
2022-11-15T00:15:52.365Z,3.00
2022-11-15T00:18:19.488Z,3.10
2022-11-15T00:20:46.294Z,3.00
2022-11-15T00:23:13.148Z,3.00
2022-11-15T00:25:39.788Z,3.10
2022-11-15T00:28:06.502Z,3.10
2022-11-15T00:30:33.514Z,3.10
2022-11-15T00:33:07.192Z,3.10
2022-11-15T00:35:34.634Z,3.10
2022-11-15T00:38:02.141Z,3.10
2022-11-15T00:40:28.862Z,3.10
2022-11-15T00:42:55.511Z,3.10
2022-11-15T00:45:22.310Z,3.10
2022-11-15T00:47:48.916Z,3.10
2022-11-15T00:50:15.786Z,3.10
2022-11-15T00:52:42.857Z,3.10
2022-11-15T00:55:15.911Z,3.10
2022-11-15T00:57:42.697Z,3.10
2022-11-15T01:00:10.173Z,3.10
2022-11-15T01:02:36.855Z,3.10
2022-11-15T01:05:03.741Z,3.10
2022-11-15T01:07:30.473Z,3.10
2022-11-15T01:09:57.129Z,3.10
2022-11-15T01:12:23.733Z,3.10
2022-11-15T01:14:50.823Z,3.10
2022-11-15T01:17:17.537Z,3.00
2022-11-15T01:19:44.122Z,3.00
2022-11-15T01:22:10.749Z,3.00
2022-11-15T01:24:37.428Z,2.90
2022-11-15T01:27:04.129Z,2.90
2022-11-15T01:29:30.752Z,2.90
2022-11-15T01:31:57.361Z,2.90
2022-11-15T01:34:23.948Z,2.90
2022-11-15T01:36:50.568Z,2.90
2022-11-15T01:39:17.745Z,2.80
2022-11-15T01:41:44.486Z,2.80
2022-11-15T01:44:35.729Z,2.80
2022-11-15T01:47:07.970Z,2.80
2022-11-15T01:49:38.733Z,2.80
2022-11-15T01:52:11.339Z,2.80
2022-11-15T01:54:38.076Z,2.70
2022-11-15T01:57:12.919Z,2.70
2022-11-15T01:59:43.214Z,2.70
2022-11-15T02:02:10.012Z,2.70
2022-11-15T02:04:41.521Z,2.70
2022-11-15T02:07:10.757Z,2.70
2022-11-15T02:09:38.585Z,2.70
2022-11-15T02:12:06.382Z,2.70
2022-11-15T02:14:34.152Z,2.70
2022-11-15T02:17:19.771Z,2.70
2022-11-15T02:20:29.281Z,2.80
2022-11-15T02:23:33.953Z,2.80
2022-11-15T02:26:29.924Z,2.80
2022-11-15T02:29:02.584Z,2.80
2022-11-15T02:31:52.606Z,2.80
2022-11-15T02:34:42.531Z,2.90
2022-11-15T02:37:30.148Z,2.90
2022-11-15T02:40:23.252Z,2.90
2022-11-15T02:43:27.887Z,3.00
2022-11-15T02:46:12.784Z,3.00
2022-11-15T02:48:40.195Z,2.90
2022-11-15T02:51:07.360Z,2.90
2022-11-15T02:53:34.212Z,2.90
2022-11-15T02:56:01.164Z,2.90
2022-11-15T02:58:54.609Z,3.00
2022-11-15T03:01:46.992Z,3.00
2022-11-15T03:04:30.848Z,3.10
2022-11-15T03:07:06.514Z,3.20
2022-11-15T03:09:53.032Z,3.20
2022-11-15T03:12:26.626Z,3.20
2022-11-15T03:15:02.239Z,3.10
2022-11-15T03:17:30.752Z,3.10
2022-11-15T03:20:00.234Z,3.10
2022-11-15T03:22:30.196Z,3.10
2022-11-15T03:25:04.485Z,3.10
2022-11-15T03:27:38.897Z,3.10
2022-11-15T03:30:08.531Z,3.00
2022-11-15T03:32:57.719Z,3.00
2022-11-15T03:35:27.803Z,3.00
2022-11-15T03:38:20.937Z,2.90
2022-11-15T03:40:59.867Z,2.90
2022-11-15T03:44:04.340Z,2.90
2022-11-15T03:46:39.459Z,2.90
2022-11-15T03:49:14.119Z,2.90
2022-11-15T03:51:41.260Z,2.80
2022-11-15T03:54:07.914Z,2.80
2022-11-15T03:56:34.527Z,2.80
2022-11-15T03:59:01.142Z,2.80
2022-11-15T04:01:27.833Z,2.80
2022-11-15T04:03:54.510Z,2.70
2022-11-15T04:06:21.240Z,2.70
2022-11-15T04:08:47.831Z,2.80
2022-11-15T04:11:14.414Z,2.70
2022-11-15T04:13:41.012Z,2.70
2022-11-15T04:16:07.681Z,2.70
2022-11-15T04:18:34.311Z,2.70
2022-11-15T04:21:19.939Z,2.70
2022-11-15T04:23:52.722Z,2.60
2022-11-15T04:26:22.185Z,2.60
2022-11-15T04:29:07.594Z,2.60
2022-11-15T04:31:34.334Z,2.50
2022-11-15T04:34:00.966Z,2.50
2022-11-15T04:36:46.288Z,2.40
2022-11-15T04:39:12.938Z,2.40
2022-11-15T04:41:39.528Z,2.40
2022-11-15T04:44:06.140Z,2.40
2022-11-15T04:46:32.716Z,2.40
2022-11-15T04:48:59.616Z,2.40
2022-11-15T04:51:26.648Z,2.40
2022-11-15T04:53:53.719Z,2.40
2022-11-15T04:56:20.521Z,2.40
2022-11-15T04:58:50.093Z,2.40
2022-11-15T05:01:17.175Z,2.40
2022-11-15T05:04:03.240Z,2.40
2022-11-15T05:06:30.567Z,2.40
2022-11-15T05:08:57.635Z,2.40
2022-11-15T05:11:24.926Z,2.40
2022-11-15T05:13:51.747Z,2.40
2022-11-15T05:16:18.376Z,2.50
2022-11-15T05:18:45.023Z,2.50
2022-11-15T05:21:14.203Z,2.60
2022-11-15T05:23:41.457Z,2.60
2022-11-15T05:26:09.497Z,2.70
2022-11-15T05:28:37.432Z,2.70
2022-11-15T05:31:05.583Z,2.80
2022-11-15T05:33:34.451Z,2.90
2022-11-15T05:36:10.703Z,2.90
2022-11-15T05:38:37.548Z,2.90
2022-11-15T05:41:05.797Z,3.00
2022-11-15T05:43:36.487Z,3.00
2022-11-15T05:46:05.288Z,3.00
2022-11-15T05:48:33.389Z,3.00
2022-11-15T05:51:00.917Z,3.00
2022-11-15T05:53:27.980Z,3.00
2022-11-15T05:55:54.736Z,3.00
2022-11-15T05:58:21.722Z,3.00
2022-11-15T06:00:48.681Z,3.00
2022-11-15T06:03:15.296Z,2.90
2022-11-15T06:05:41.976Z,2.90
2022-11-15T06:08:08.659Z,2.80
2022-11-15T06:10:35.284Z,2.70
2022-11-15T06:13:06.175Z,2.60
2022-11-15T06:15:35.981Z,2.60
2022-11-15T06:18:02.664Z,2.50
2022-11-15T06:20:30.572Z,2.50
2022-11-15T06:23:06.820Z,2.50
2022-11-15T06:25:33.442Z,2.40
2022-11-15T06:28:00.639Z,2.40
2022-11-15T06:30:27.944Z,2.40
2022-11-15T06:33:05.414Z,2.30
2022-11-15T06:35:34.329Z,2.30
2022-11-15T06:38:06.828Z,2.30
2022-11-15T06:40:38.052Z,2.30
2022-11-15T06:43:05.874Z,2.20
2022-11-15T06:45:33.295Z,2.20
2022-11-15T06:47:59.999Z,2.20
2022-11-15T06:50:26.639Z,2.20
2022-11-15T06:52:53.274Z,2.20
2022-11-15T06:55:20.174Z,2.20
2022-11-15T06:57:51.867Z,2.30
2022-11-15T07:00:20.971Z,2.30
2022-11-15T07:02:48.484Z,2.30
2022-11-15T07:05:15.844Z,2.30
2022-11-15T07:07:42.602Z,2.40
2022-11-15T07:10:09.784Z,2.40
2022-11-15T07:12:36.566Z,2.40
2022-11-15T07:15:03.329Z,2.40
2022-11-15T07:17:29.895Z,2.40
2022-11-15T07:19:56.504Z,2.50
2022-11-15T07:22:23.132Z,2.50
2022-11-15T07:24:49.756Z,2.60
2022-11-15T07:27:16.510Z,2.70
2022-11-15T07:29:43.375Z,2.80
2022-11-15T07:32:10.603Z,2.90
2022-11-15T07:34:37.212Z,3.00
2022-11-15T07:37:03.843Z,3.00
2022-11-15T07:39:30.455Z,3.10
2022-11-15T07:42:17.093Z,3.20
2022-11-15T07:44:43.697Z,3.30
2022-11-15T07:47:10.426Z,3.40
2022-11-15T07:49:37.007Z,3.40
2022-11-15T07:52:03.732Z,3.50
2022-11-15T07:54:30.411Z,3.50
2022-11-15T07:56:57.886Z,3.50
2022-11-15T07:59:26.822Z,3.60
2022-11-15T08:01:53.676Z,3.60
2022-11-15T08:04:20.448Z,3.70
2022-11-15T08:06:47.096Z,3.80
2022-11-15T08:09:13.775Z,3.90
2022-11-15T08:11:40.390Z,3.90
2022-11-15T08:14:07.005Z,4.00
2022-11-15T08:16:34.038Z,4.10
2022-11-15T08:19:01.178Z,4.20
2022-11-15T08:21:28.010Z,4.40
2022-11-15T08:23:54.587Z,4.40
2022-11-15T08:26:21.319Z,4.60
2022-11-15T08:28:47.968Z,4.70
2022-11-15T08:31:17.770Z,4.80
2022-11-15T08:33:44.872Z,4.90
2022-11-15T08:36:15.717Z,5.10
2022-11-15T08:38:42.749Z,5.20
2022-11-15T08:41:15.984Z,5.30
2022-11-15T08:43:42.618Z,5.40
2022-11-15T08:46:13.459Z,5.40
2022-11-15T08:48:40.114Z,5.50
2022-11-15T08:51:07.144Z,5.60
2022-11-15T08:53:35.050Z,5.70
2022-11-15T08:56:01.889Z,5.80
2022-11-15T08:58:28.618Z,5.80
2022-11-15T09:00:55.632Z,6.00
2022-11-15T09:03:22.251Z,6.00
2022-11-15T09:05:48.896Z,6.10
2022-11-15T09:08:40.715Z,6.20
2022-11-15T09:11:09.943Z,6.30
2022-11-15T09:13:40.494Z,6.40
2022-11-15T09:16:07.404Z,6.50
2022-11-15T09:18:35.615Z,6.50
2022-11-15T09:21:03.808Z,6.60
2022-11-15T09:23:30.861Z,6.60
2022-11-15T09:26:02.245Z,6.70
2022-11-15T09:28:30.095Z,6.80
2022-11-15T09:31:01.585Z,7.00
2022-11-15T09:33:29.577Z,7.00
2022-11-15T09:36:02.192Z,7.10
2022-11-15T09:38:29.375Z,7.20
2022-11-15T09:41:14.785Z,7.30
2022-11-15T09:43:56.798Z,7.30
2022-11-15T09:46:43.700Z,7.40
2022-11-15T09:49:13.448Z,7.50
2022-11-15T09:51:49.062Z,7.50
2022-11-15T09:57:39.907Z,7.70
2022-11-15T10:03:18.671Z,7.80
2022-11-15T10:05:48.106Z,7.90
2022-11-15T10:08:38.201Z,8.00
2022-11-15T10:14:00.220Z,8.10
2022-11-15T10:16:54.073Z,8.20
2022-11-15T10:19:51.148Z,8.30
2022-11-15T10:22:32.750Z,8.50
2022-11-15T10:25:20.691Z,8.60
2022-11-15T10:28:17.775Z,8.70
2022-11-15T10:30:48.020Z,8.80
2022-11-15T10:33:26.667Z,8.90
2022-11-15T10:36:12.182Z,8.90
2022-11-15T10:38:50.990Z,9.00
2022-11-15T10:41:32.516Z,9.20
2022-11-15T10:44:29.945Z,9.30
2022-11-15T10:46:56.653Z,9.40
2022-11-15T10:49:31.335Z,9.50
2022-11-15T10:52:17.850Z,9.60
2022-11-15T10:54:51.131Z,9.80
2022-11-15T10:57:21.505Z,10.00
2022-11-15T10:59:51.500Z,10.10
2022-11-15T11:02:39.008Z,10.30
2022-11-15T11:05:38.110Z,10.40
2022-11-15T11:08:16.916Z,10.70
2022-11-15T11:11:02.226Z,10.90
2022-11-15T11:13:40.952Z,11.10
2022-11-15T11:16:22.764Z,11.20
2022-11-15T11:19:07.663Z,11.30
2022-11-15T11:21:50.628Z,11.50
2022-11-15T11:24:49.886Z,11.60
2022-11-15T11:27:47.581Z,11.80
2022-11-15T11:30:24.333Z,12.00
2022-11-15T11:33:29.086Z,12.20
2022-11-15T11:36:18.068Z,12.30
2022-11-15T11:39:12.398Z,12.50
2022-11-15T11:41:41.771Z,12.60
2022-11-15T11:44:35.229Z,12.70
2022-11-15T11:47:10.409Z,12.80
2022-11-15T11:49:53.517Z,12.90
2022-11-15T11:52:27.831Z,13.00
2022-11-15T11:55:02.783Z,13.00
2022-11-15T11:58:10.794Z,13.00
2022-11-15T12:00:44.014Z,13.10
2022-11-15T12:03:32.333Z,13.10
2022-11-15T12:06:02.823Z,13.10
2022-11-15T12:08:54.701Z,13.00
2022-11-15T12:11:46.256Z,13.00
2022-11-15T12:14:44.110Z,12.90
2022-11-15T12:17:15.483Z,12.90
2022-11-15T12:19:43.767Z,12.90
2022-11-15T12:22:41.842Z,12.80
2022-11-15T12:25:20.695Z,12.80
2022-11-15T12:28:01.170Z,12.80
2022-11-15T12:30:41.775Z,12.80
2022-11-15T12:33:36.228Z,12.80
2022-11-15T12:36:30.197Z,12.80
2022-11-15T12:39:05.607Z,12.80
2022-11-15T12:41:42.730Z,12.80
2022-11-15T12:44:14.527Z,12.80
2022-11-15T12:46:41.448Z,12.80
2022-11-15T12:49:26.916Z,12.80
2022-11-15T12:51:59.562Z,12.80
2022-11-15T12:54:27.481Z,12.70
2022-11-15T12:57:09.304Z,12.70
2022-11-15T12:59:56.292Z,12.70
2022-11-15T13:02:30.692Z,12.70
2022-11-15T13:05:15.999Z,12.60
2022-11-15T13:07:42.539Z,12.60
2022-11-15T13:10:35.540Z,12.60
2022-11-15T13:13:05.196Z,12.50
2022-11-15T13:15:42.611Z,12.50
2022-11-15T13:18:24.659Z,12.50
2022-11-15T13:20:51.353Z,12.50
2022-11-15T13:23:18.062Z,12.50
2022-11-15T13:25:58.505Z,12.60
2022-11-15T13:28:42.836Z,12.60
2022-11-15T13:31:38.657Z,12.60
2022-11-15T13:34:50.655Z,12.70
2022-11-15T13:37:21.752Z,12.70
2022-11-15T13:39:50.123Z,12.70
2022-11-15T13:42:18.714Z,12.70
2022-11-15T13:45:04.422Z,12.70
2022-11-15T13:47:32.639Z,12.80
2022-11-15T13:50:00.456Z,12.80
2022-11-15T13:52:35.917Z,12.90
2022-11-15T13:55:14.290Z,12.90
2022-11-15T13:57:45.517Z,12.90
2022-11-15T14:00:33.220Z,13.00
2022-11-15T14:03:09.284Z,13.10
2022-11-15T14:05:36.320Z,13.10
2022-11-15T14:08:25.087Z,13.10
2022-11-15T14:11:16.225Z,13.20
2022-11-15T14:13:43.515Z,13.30
2022-11-15T14:16:20.671Z,13.30
2022-11-15T14:18:52.301Z,13.20
2022-11-15T14:21:20.665Z,13.10
2022-11-15T14:23:49.957Z,13.00
2022-11-15T14:26:34.555Z,12.90
2022-11-15T14:29:32.923Z,12.70
2022-11-15T14:32:23.788Z,12.60
2022-11-15T14:34:56.250Z,12.50
2022-11-15T14:37:25.736Z,12.40
2022-11-15T14:39:53.137Z,12.20
2022-11-15T14:42:20.629Z,12.10
2022-11-15T14:44:47.854Z,12.00
2022-11-15T14:47:14.580Z,11.80
2022-11-15T14:49:41.332Z,11.70
2022-11-15T14:52:32.247Z,11.60
2022-11-15T14:55:00.616Z,11.40
2022-11-15T14:57:27.312Z,11.30
2022-11-15T14:59:54.189Z,11.20
2022-11-15T15:02:26.579Z,11.10
2022-11-15T15:04:54.164Z,11.00
2022-11-15T15:07:21.450Z,10.80
2022-11-15T15:09:48.221Z,10.70
2022-11-15T15:12:20.578Z,10.70
2022-11-15T15:14:48.964Z,10.60
2022-11-15T15:17:16.032Z,10.50
2022-11-15T15:19:42.804Z,10.40
2022-11-15T15:22:18.043Z,10.30
2022-11-15T15:24:46.048Z,10.20
2022-11-15T15:27:13.517Z,10.10
2022-11-15T15:29:40.220Z,10.00
2022-11-15T15:32:07.136Z,9.90
2022-11-15T15:34:34.471Z,9.80
2022-11-15T15:37:34.067Z,9.70
2022-11-15T15:40:00.699Z,9.60
2022-11-15T15:42:27.297Z,9.50
2022-11-15T15:44:53.930Z,9.40
2022-11-15T15:47:24.382Z,9.30
2022-11-15T15:49:51.697Z,9.20
2022-11-15T15:52:18.340Z,9.10
2022-11-15T15:54:45.042Z,9.00
2022-11-15T15:57:15.533Z,9.00
2022-11-15T15:59:42.178Z,8.90
2022-11-15T16:02:15.700Z,8.80
2022-11-15T16:04:42.330Z,8.70
2022-11-15T16:07:20.106Z,8.60
2022-11-15T16:10:02.372Z,8.50
2022-11-15T16:12:35.392Z,8.40
2022-11-15T16:15:03.274Z,8.40
2022-11-15T16:17:34.522Z,8.30
2022-11-15T16:20:01.518Z,8.20
2022-11-15T16:22:30.130Z,8.20
2022-11-15T16:24:57.374Z,8.10
2022-11-15T16:27:24.193Z,8.10
2022-11-15T16:29:50.854Z,8.00
2022-11-15T16:32:17.748Z,8.00
2022-11-15T16:34:48.788Z,7.90
2022-11-15T16:37:23.769Z,8.00
2022-11-15T16:39:50.620Z,8.00
2022-11-15T16:42:17.347Z,8.00
2022-11-15T16:44:44.960Z,7.90
2022-11-15T16:47:20.053Z,7.80
2022-11-15T16:49:47.398Z,7.80
2022-11-15T16:52:18.732Z,7.80
2022-11-15T16:54:47.795Z,7.70
2022-11-15T16:57:14.404Z,7.70
2022-11-15T16:59:41.006Z,7.60
2022-11-15T17:02:13.628Z,7.60
2022-11-15T17:04:40.330Z,7.50
2022-11-15T17:07:07.210Z,7.40
2022-11-15T17:09:34.408Z,7.50
2022-11-15T17:12:01.118Z,7.40
2022-11-15T17:14:27.705Z,7.40
2022-11-15T17:16:55.386Z,7.30
2022-11-15T17:19:22.276Z,7.30
2022-11-15T17:21:51.955Z,7.30
2022-11-15T17:24:20.790Z,7.30
2022-11-15T17:26:47.484Z,7.20
2022-11-15T17:29:14.083Z,7.20
2022-11-15T17:31:40.699Z,7.10
2022-11-15T17:34:07.925Z,7.10
2022-11-15T17:36:35.640Z,7.10
2022-11-15T17:39:02.714Z,7.00
2022-11-15T17:41:29.671Z,7.00
2022-11-15T17:43:58.536Z,6.90
2022-11-15T17:46:25.194Z,6.90
2022-11-15T17:48:51.974Z,6.90
2022-11-15T17:51:19.335Z,6.90
2022-11-15T17:53:49.158Z,6.90
2022-11-15T17:56:18.320Z,6.80
2022-11-15T17:58:56.517Z,6.80
2022-11-15T18:01:31.775Z,6.80
2022-11-15T18:04:00.781Z,6.80
2022-11-15T18:06:30.537Z,6.80
2022-11-15T18:08:57.755Z,6.70
2022-11-15T18:11:50.564Z,6.70
2022-11-15T18:14:18.753Z,6.70
2022-11-15T18:16:45.796Z,6.70
2022-11-15T18:19:15.862Z,6.70
2022-11-15T18:21:56.889Z,6.70
2022-11-15T18:24:25.320Z,6.70
2022-11-15T18:26:52.032Z,6.60
2022-11-15T18:29:19.724Z,6.60
2022-11-15T18:31:49.580Z,6.60
2022-11-15T18:34:16.698Z,6.60
2022-11-15T18:36:43.983Z,6.60
2022-11-15T18:39:16.263Z,6.50
2022-11-15T18:41:44.399Z,6.50
2022-11-15T18:44:11.137Z,6.50
2022-11-15T18:46:39.217Z,6.50
2022-11-15T18:49:07.714Z,6.50
2022-11-15T18:51:36.879Z,6.50
2022-11-15T18:54:04.377Z,6.50
2022-11-15T18:56:32.148Z,6.40
2022-11-15T18:59:00.813Z,6.50
2022-11-15T19:01:29.579Z,6.40
2022-11-15T19:03:57.744Z,6.40
2022-11-15T19:06:29.271Z,6.40
2022-11-15T19:08:58.562Z,6.40
2022-11-15T19:11:31.222Z,6.30
2022-11-15T19:14:03.283Z,6.40
2022-11-15T19:16:33.359Z,6.30
2022-11-15T19:19:02.296Z,6.30
2022-11-15T19:21:31.062Z,6.30
2022-11-15T19:23:58.342Z,6.30
2022-11-15T19:26:26.460Z,6.30
2022-11-15T19:28:55.273Z,6.30
2022-11-15T19:31:23.655Z,6.30
2022-11-15T19:33:51.208Z,6.30
2022-11-15T19:36:23.189Z,6.30
2022-11-15T19:38:50.234Z,6.20
2022-11-15T19:41:19.072Z,6.10
2022-11-15T19:43:50.876Z,6.00
2022-11-15T19:46:20.495Z,6.00
2022-11-15T19:48:48.163Z,6.10
2022-11-15T19:51:19.275Z,6.00
2022-11-15T19:53:46.051Z,6.10
2022-11-15T19:56:15.064Z,6.20
2022-11-15T19:58:42.475Z,6.30
2022-11-15T20:01:27.097Z,6.40
2022-11-15T20:03:55.585Z,6.50
2022-11-15T20:06:24.508Z,6.60
2022-11-15T20:08:52.017Z,6.80
2022-11-15T20:11:19.104Z,7.00
2022-11-15T20:13:45.983Z,7.10
2022-11-15T20:16:17.661Z,7.00
2022-11-15T20:18:44.474Z,7.10
2022-11-15T20:21:11.774Z,7.20
2022-11-15T20:23:39.291Z,7.20
2022-11-15T20:26:07.567Z,6.90
2022-11-15T20:28:37.016Z,6.80
2022-11-15T20:31:04.102Z,6.50
2022-11-15T20:33:30.736Z,6.50
2022-11-15T20:35:57.386Z,6.40
2022-11-15T20:38:24.419Z,6.40
2022-11-15T20:40:56.132Z,6.30
2022-11-15T20:43:25.805Z,6.30
2022-11-15T20:45:52.537Z,6.30
2022-11-15T20:48:19.290Z,6.20
2022-11-15T20:50:47.194Z,6.10
2022-11-15T20:53:17.415Z,6.10
2022-11-15T20:55:48.037Z,6.10
2022-11-15T20:58:15.946Z,6.00
2022-11-15T21:00:44.721Z,6.10
2022-11-15T21:03:12.972Z,6.10
2022-11-15T21:05:41.429Z,6.00
2022-11-15T21:08:09.373Z,6.00
2022-11-15T21:10:54.666Z,6.00
2022-11-15T21:13:21.467Z,6.00
2022-11-15T21:15:48.468Z,5.90
2022-11-15T21:18:15.615Z,6.00
2022-11-15T21:20:42.512Z,6.00
2022-11-15T21:23:09.504Z,6.00
2022-11-15T21:25:36.158Z,5.90
2022-11-15T21:28:02.954Z,5.80
2022-11-15T21:30:29.977Z,5.80
2022-11-15T21:32:56.870Z,5.80
2022-11-15T21:35:23.865Z,5.80
2022-11-15T21:37:56.170Z,5.80
2022-11-15T21:40:23.865Z,5.90
2022-11-15T21:42:50.625Z,5.80
2022-11-15T21:45:17.325Z,5.80
2022-11-15T21:47:46.384Z,5.80
2022-11-15T21:50:13.876Z,5.80
2022-11-15T21:52:40.769Z,5.80
2022-11-15T21:55:08.195Z,5.80
2022-11-15T21:57:34.884Z,5.80
2022-11-15T22:00:20.289Z,5.80
2022-11-15T22:02:46.939Z,5.80
2022-11-15T22:05:13.682Z,5.70
2022-11-15T22:07:40.370Z,5.80
2022-11-15T22:10:07.254Z,5.80
2022-11-15T22:12:33.851Z,5.70
2022-11-15T22:15:00.482Z,5.70
2022-11-15T22:17:47.103Z,5.80
2022-11-15T22:20:37.582Z,5.70
2022-11-15T22:23:02.107Z,5.70
2022-11-15T22:25:28.912Z,5.70
2022-11-15T22:27:55.946Z,5.70
2022-11-15T22:30:22.777Z,5.60
2022-11-15T22:32:49.729Z,5.70
2022-11-15T22:35:16.828Z,5.70
2022-11-15T22:37:43.449Z,5.60
2022-11-15T22:40:10.482Z,5.70
2022-11-15T22:42:37.110Z,5.70
2022-11-15T22:45:04.199Z,5.70
2022-11-15T22:47:30.791Z,5.70
2022-11-15T22:49:57.954Z,5.70
2022-11-15T22:52:24.606Z,5.80
2022-11-15T22:54:51.278Z,5.80
2022-11-15T22:57:17.865Z,5.70
2022-11-15T22:59:44.496Z,5.70
2022-11-15T23:02:11.123Z,5.70
2022-11-15T23:04:37.768Z,5.60
2022-11-15T23:07:04.603Z,5.60
2022-11-15T23:09:31.339Z,5.60
2022-11-15T23:12:16.791Z,5.60
2022-11-15T23:14:43.407Z,5.60
2022-11-15T23:17:10.028Z,5.60
2022-11-15T23:19:36.662Z,5.60
2022-11-15T23:22:21.925Z,5.60
2022-11-15T23:24:48.641Z,5.60
2022-11-15T23:27:19.765Z,5.60
2022-11-15T23:30:05.707Z,5.60
2022-11-15T23:32:51.347Z,5.60
2022-11-15T23:35:18.063Z,5.60
2022-11-15T23:37:44.695Z,5.60
2022-11-15T23:40:12.098Z,5.60
2022-11-15T23:42:38.793Z,5.60
2022-11-15T23:45:06.282Z,5.70
2022-11-15T23:47:32.895Z,5.70
2022-11-15T23:49:59.533Z,5.60
2022-11-15T23:52:26.290Z,5.70
2022-11-15T23:54:52.975Z,5.70
2022-11-15T23:57:19.671Z,5.70
2022-11-15T23:59:46.315Z,5.70
